createdAt,value
2018-02-10T00:01:24.519Z,33.70
2018-02-10T00:03:52.847Z,38.85
2018-02-10T00:06:22.044Z,44.33
2018-02-10T00:08:50.343Z,41.88
2018-02-10T00:11:19.419Z,35.63
2018-02-10T00:13:47.776Z,40.28
2018-02-10T00:16:16.068Z,35.35
2018-02-10T00:18:44.516Z,34.72
2018-02-10T00:21:12.829Z,34.42
2018-02-10T00:23:41.895Z,40.28
2018-02-10T00:26:10.328Z,44.45
2018-02-10T00:28:38.648Z,36.67
2018-02-10T00:31:06.948Z,38.50
2018-02-10T00:33:35.276Z,38.40
2018-02-10T00:36:03.576Z,32.33
2018-02-10T00:38:32.673Z,31.48
2018-02-10T00:41:00.970Z,34.20
2018-02-10T00:43:29.316Z,37.90
2018-02-10T00:45:57.628Z,37.55
2018-02-10T00:48:25.923Z,39.92
2018-02-10T00:50:55.109Z,44.40
2018-02-10T00:53:23.396Z,39.13
2018-02-10T00:55:51.737Z,35.40
2018-02-10T00:58:20.813Z,33.42
2018-02-10T01:00:49.152Z,39.83
2018-02-10T01:03:17.473Z,42.60
2018-02-10T01:05:45.776Z,42.50
2018-02-10T01:08:14.373Z,36.20
2018-02-10T01:10:42.680Z,33.20
2018-02-10T01:13:11.015Z,38.33
2018-02-10T01:15:40.132Z,32.38
2018-02-10T01:18:08.475Z,35.03
2018-02-10T01:20:37.081Z,34.85
2018-02-10T01:23:06.147Z,37.28
2018-02-10T01:25:34.471Z,44.60
2018-02-10T01:28:02.815Z,42.50
2018-02-10T01:30:31.135Z,42.50
2018-02-10T01:32:59.472Z,37.42
2018-02-10T01:35:27.779Z,46.35
2018-02-10T01:37:56.116Z,37.30
2018-02-10T01:40:24.421Z,40.20
2018-02-10T01:42:53.740Z,50.25
2018-02-10T01:45:22.801Z,34.85
2018-02-10T01:47:51.115Z,40.70
2018-02-10T01:50:22.291Z,35.47
2018-02-10T01:52:51.363Z,42.92
2018-02-10T01:55:19.716Z,42.53
2018-02-10T01:57:48.796Z,37.30
2018-02-10T02:00:17.888Z,38.28
2018-02-10T02:02:46.212Z,37.38
2018-02-10T02:05:14.550Z,36.30
2018-02-10T02:07:43.166Z,35.17
2018-02-10T02:10:11.468Z,40.15
2018-02-10T02:12:39.772Z,33.60
2018-02-10T02:15:08.867Z,39.13
2018-02-10T02:17:37.966Z,40.85
2018-02-10T02:20:06.280Z,44.85
2018-02-10T02:22:35.341Z,30.77
2018-02-10T02:25:03.663Z,39.72
2018-02-10T02:27:32.729Z,44.90
2018-02-10T02:30:01.308Z,38.63
2018-02-10T02:32:29.605Z,38.63
2018-02-10T02:34:57.957Z,33.75
2018-02-10T02:37:27.069Z,29.77
2018-02-10T02:39:56.124Z,47.53
2018-02-10T02:42:24.429Z,45.53
2018-02-10T02:44:52.752Z,42.05
2018-02-10T02:47:21.813Z,36.17
2018-02-10T02:49:50.153Z,34.00
2018-02-10T02:52:18.482Z,40.00
2018-02-10T02:54:46.788Z,36.30
2018-02-10T02:57:15.113Z,46.50
2018-02-10T02:59:44.188Z,40.85
2018-02-10T03:02:12.517Z,58.35
2018-02-10T03:04:41.600Z,43.72
2018-02-10T03:07:09.988Z,28.40
2018-02-10T03:09:38.308Z,37.17
2018-02-10T03:12:07.416Z,39.75
2018-02-10T03:14:36.488Z,45.67
2018-02-10T03:17:04.785Z,38.75
2018-02-10T03:19:33.435Z,48.53
2018-02-10T03:22:01.737Z,34.85
2018-02-10T03:24:30.065Z,42.70
2018-02-10T03:26:58.384Z,37.80
2018-02-10T03:29:27.482Z,43.83
2018-02-10T03:31:55.773Z,38.78
2018-02-10T03:34:24.860Z,36.45
2018-02-10T03:36:53.200Z,41.65
2018-02-10T03:39:22.289Z,44.00
2018-02-10T03:41:51.373Z,42.38
2018-02-10T03:44:19.756Z,34.33
2018-02-10T03:46:48.095Z,35.13
2018-02-10T03:49:16.417Z,48.53
2018-02-10T03:51:44.709Z,40.40
2018-02-10T03:54:13.042Z,37.97
2018-02-10T03:56:42.091Z,43.42
2018-02-10T03:59:10.429Z,41.92
2018-02-10T04:01:39.509Z,37.03
2018-02-10T04:04:07.819Z,34.40
2018-02-10T04:06:36.161Z,37.83
2018-02-10T04:09:04.456Z,42.03
2018-02-10T04:11:32.756Z,36.65
2018-02-10T04:14:01.156Z,41.88
2018-02-10T04:16:29.551Z,31.83
2018-02-10T04:18:57.855Z,46.05
2018-02-10T04:21:26.198Z,41.90
2018-02-10T04:23:54.496Z,45.92
2018-02-10T04:26:22.824Z,38.80
2018-02-10T04:28:51.120Z,39.08
2018-02-10T04:31:19.452Z,38.05
2018-02-10T04:33:47.759Z,40.85
2018-02-10T04:36:16.095Z,34.45
2018-02-10T04:38:44.384Z,45.67
2018-02-10T04:41:12.685Z,45.85
2018-02-10T04:43:41.057Z,30.40
2018-02-10T04:46:09.372Z,27.80
2018-02-10T04:48:37.699Z,35.40
2018-02-10T04:51:06.008Z,36.70
2018-02-10T04:53:34.355Z,44.85
2018-02-10T04:56:03.429Z,36.40
2018-02-10T04:58:31.797Z,42.10
2018-02-10T05:01:00.098Z,46.78
2018-02-10T05:03:28.432Z,44.88
2018-02-10T05:05:57.510Z,37.55
2018-02-10T05:08:25.840Z,44.00
2018-02-10T05:10:54.176Z,40.85
2018-02-10T05:13:22.541Z,33.33
2018-02-10T05:15:50.846Z,43.03
2018-02-10T05:18:19.165Z,47.40
2018-02-10T05:20:47.495Z,37.17
2018-02-10T05:23:15.841Z,34.15
2018-02-10T05:25:44.155Z,44.28
2018-02-10T05:28:13.251Z,46.85
2018-02-10T05:30:41.548Z,43.03
2018-02-10T05:33:09.881Z,39.15
2018-02-10T05:35:38.194Z,42.72
2018-02-10T05:38:06.495Z,38.83
2018-02-10T05:40:34.868Z,33.72
2018-02-10T05:43:03.164Z,41.97
2018-02-10T05:45:31.500Z,41.10
2018-02-10T05:48:00.562Z,38.22
2018-02-10T05:50:28.889Z,33.50
2018-02-10T05:52:57.201Z,40.63
2018-02-10T05:55:25.525Z,48.50
2018-02-10T05:57:53.818Z,40.70
2018-02-10T06:00:22.173Z,41.10
2018-02-10T06:02:50.485Z,35.55
2018-02-10T06:05:18.855Z,35.53
2018-02-10T06:07:47.152Z,29.17
2018-02-10T06:10:15.499Z,42.72
2018-02-10T06:12:43.796Z,39.80
2018-02-10T06:15:12.129Z,44.58
2018-02-10T06:17:40.465Z,39.40
2018-02-10T06:20:08.800Z,40.80
2018-02-10T06:22:37.412Z,40.92
2018-02-10T06:25:05.758Z,36.90
2018-02-10T06:27:34.836Z,43.90
2018-02-10T06:30:03.189Z,40.35
2018-02-10T06:32:31.518Z,39.05
2018-02-10T06:35:00.103Z,31.58
2018-02-10T06:37:28.399Z,45.47
2018-02-10T06:39:56.749Z,36.55
2018-02-10T06:42:25.044Z,38.35
2018-02-10T06:44:53.379Z,37.90
2018-02-10T06:47:21.680Z,37.33
2018-02-10T06:49:50.010Z,43.28
2018-02-10T06:52:18.435Z,36.70
2018-02-10T06:54:46.769Z,40.38
2018-02-10T06:57:15.840Z,38.75
2018-02-10T06:59:44.160Z,36.88
2018-02-10T07:02:12.472Z,43.35
2018-02-10T07:04:41.582Z,35.58
2018-02-10T07:07:10.741Z,31.30
2018-02-10T07:09:39.039Z,30.45
2018-02-10T07:12:07.364Z,41.17
2018-02-10T07:14:36.439Z,31.90
2018-02-10T07:17:04.776Z,35.50
2018-02-10T07:19:33.078Z,31.35
2018-02-10T07:22:01.414Z,44.10
2018-02-10T07:24:29.796Z,35.60
2018-02-10T07:26:58.126Z,38.15
2018-02-10T07:29:26.436Z,57.33
2018-02-10T07:31:54.784Z,30.70
2018-02-10T07:34:23.183Z,38.35
2018-02-10T07:36:52.288Z,35.03
2018-02-10T07:39:20.585Z,28.60
2018-02-10T07:41:49.724Z,30.08
2018-02-10T07:44:18.019Z,33.38
2018-02-10T07:46:46.383Z,34.20
2018-02-10T07:49:15.453Z,36.95
2018-02-10T07:51:43.784Z,36.35
2018-02-10T07:54:12.848Z,43.58
2018-02-10T07:56:41.149Z,36.10
2018-02-10T07:59:09.475Z,32.72
2018-02-10T08:01:38.539Z,43.40
2018-02-10T08:04:06.900Z,39.00
2018-02-10T08:06:35.305Z,33.95
2018-02-10T08:09:03.658Z,40.20
2018-02-10T08:11:32.000Z,35.10
2018-02-10T08:14:00.357Z,39.85
2018-02-10T08:16:28.668Z,33.03
2018-02-10T08:18:56.999Z,39.00
2018-02-10T08:21:25.302Z,35.38
2018-02-10T08:23:54.402Z,31.45
2018-02-10T08:26:22.721Z,38.50
2018-02-10T08:28:51.077Z,37.22
2018-02-10T08:31:19.386Z,37.92
2018-02-10T08:33:48.485Z,37.77
2018-02-10T08:36:17.562Z,41.78
2018-02-10T08:38:45.908Z,29.73
2018-02-10T08:41:14.232Z,26.33
2018-02-10T08:43:42.574Z,33.92
2018-02-10T08:46:10.884Z,30.98
2018-02-10T08:48:39.311Z,28.60
2018-02-10T08:51:07.618Z,31.25
2018-02-10T08:53:35.943Z,40.42
2018-02-10T08:56:05.043Z,31.30
2018-02-10T08:58:34.120Z,28.25
2018-02-10T09:01:02.479Z,32.23
2018-02-10T09:03:30.823Z,29.15
2018-02-10T09:05:59.942Z,23.63
2018-02-10T09:08:29.016Z,30.02
2018-02-10T09:10:57.409Z,34.17
2018-02-10T09:13:25.713Z,36.75
2018-02-10T09:15:54.111Z,31.12
2018-02-10T09:18:23.191Z,33.70
2018-02-10T09:20:51.489Z,32.10
2018-02-10T09:23:19.822Z,26.23
2018-02-10T09:25:48.132Z,32.05
2018-02-10T09:28:16.464Z,26.70
2018-02-10T09:30:44.771Z,33.35
2018-02-10T09:33:13.916Z,27.35
2018-02-10T09:35:42.222Z,26.83
2018-02-10T09:38:10.549Z,24.73
2018-02-10T09:40:38.951Z,21.25
2018-02-10T09:43:08.050Z,21.85
2018-02-10T09:45:36.367Z,21.15
2018-02-10T09:48:05.427Z,26.25
2018-02-10T09:50:33.799Z,22.52
2018-02-10T09:53:02.154Z,26.03
2018-02-10T09:55:30.495Z,23.27
2018-02-10T09:57:58.863Z,22.73
2018-02-10T10:00:27.156Z,37.43
2018-02-10T10:02:55.492Z,22.53
2018-02-10T10:05:23.811Z,22.35
2018-02-10T10:07:52.877Z,28.67
2018-02-10T10:10:21.241Z,23.60
2018-02-10T10:12:49.533Z,26.20
2018-02-10T10:15:17.870Z,25.40
2018-02-10T10:17:46.972Z,26.70
2018-02-10T10:20:16.056Z,27.85
2018-02-10T10:22:44.383Z,29.80
2018-02-10T10:25:13.488Z,25.07
2018-02-10T10:27:41.815Z,25.53
2018-02-10T10:30:10.188Z,30.77
2018-02-10T10:32:38.546Z,24.50
2018-02-10T10:35:07.655Z,26.60
2018-02-10T10:37:36.041Z,28.97
2018-02-10T10:40:04.374Z,25.65
2018-02-10T10:42:32.674Z,19.10
2018-02-10T10:45:01.246Z,21.30
2018-02-10T10:47:32.708Z,23.07
2018-02-10T10:50:01.176Z,25.45
2018-02-10T10:52:29.578Z,22.20
2018-02-10T10:54:59.194Z,24.50
2018-02-10T10:57:28.523Z,20.45
2018-02-10T10:59:56.815Z,21.50
2018-02-10T11:02:26.167Z,20.62
2018-02-10T11:04:55.391Z,19.50
2018-02-10T11:07:23.812Z,20.88
2018-02-10T11:09:52.140Z,24.15
2018-02-10T11:12:20.576Z,26.23
2018-02-10T11:14:48.893Z,17.90
2018-02-10T11:17:17.285Z,28.12
2018-02-10T11:19:45.676Z,28.23
2018-02-10T11:22:14.311Z,22.13
2018-02-10T11:24:42.672Z,23.97
2018-02-10T11:27:13.141Z,22.55
2018-02-10T11:29:42.251Z,21.87
2018-02-10T11:32:10.671Z,26.77
2018-02-10T11:34:39.000Z,20.13
2018-02-10T11:37:07.350Z,21.23
2018-02-10T11:39:35.924Z,24.87
2018-02-10T11:42:05.973Z,18.03
2018-02-10T11:44:34.306Z,21.67
2018-02-10T11:47:02.770Z,19.37
2018-02-10T11:49:31.136Z,22.53
2018-02-10T11:52:10.342Z,24.00
2018-02-10T11:54:38.663Z,22.47
2018-02-10T11:57:07.730Z,23.07
2018-02-10T11:59:36.714Z,19.43
2018-02-10T12:02:09.511Z,20.50
2018-02-10T12:04:37.961Z,21.93
2018-02-10T12:07:06.418Z,21.07
2018-02-10T12:09:34.961Z,21.63
2018-02-10T12:12:03.273Z,21.60
2018-02-10T12:14:31.594Z,19.93
2018-02-10T12:16:59.926Z,21.07
2018-02-10T12:19:28.440Z,28.90
2018-02-10T12:21:56.766Z,20.27
2018-02-10T12:24:25.057Z,14.07
2018-02-10T12:26:53.403Z,19.43
2018-02-10T12:29:21.684Z,19.23
2018-02-10T12:31:50.079Z,18.60
2018-02-10T12:34:33.709Z,22.10
2018-02-10T12:37:02.824Z,28.10
2018-02-10T12:39:31.114Z,20.20
2018-02-10T12:41:59.448Z,16.90
2018-02-10T12:44:27.769Z,18.90
2018-02-10T12:46:56.145Z,16.83
2018-02-10T12:49:29.832Z,18.05
2018-02-10T12:51:58.190Z,27.50
2018-02-10T12:54:26.510Z,23.27
2018-02-10T12:56:54.848Z,18.20
2018-02-10T12:59:23.143Z,16.83
2018-02-10T13:01:51.507Z,21.25
2018-02-10T13:04:21.769Z,18.90
2018-02-10T13:06:50.881Z,22.07
2018-02-10T13:09:20.144Z,22.48
2018-02-10T13:11:48.491Z,23.52
2018-02-10T13:14:16.835Z,18.40
2018-02-10T13:16:45.136Z,25.00
2018-02-10T13:19:13.482Z,19.00
2018-02-10T13:21:41.874Z,16.50
2018-02-10T13:24:10.261Z,15.47
2018-02-10T13:26:38.684Z,14.63
2018-02-10T13:29:07.183Z,17.37
2018-02-10T13:31:35.515Z,18.97
2018-02-10T13:34:05.843Z,13.40
2018-02-10T13:36:34.970Z,13.13
2018-02-10T13:39:03.357Z,14.90
2018-02-10T13:41:32.584Z,17.07
2018-02-10T13:44:00.920Z,12.63
2018-02-10T13:46:29.250Z,11.37
2018-02-10T13:48:57.658Z,12.77
2018-02-10T13:51:25.994Z,10.80
2018-02-10T13:54:07.059Z,16.60
2018-02-10T13:56:35.439Z,12.30
2018-02-10T13:59:03.781Z,11.80
2018-02-10T14:01:32.077Z,15.63
2018-02-10T14:04:00.400Z,7.70
2018-02-10T14:06:29.718Z,10.33
2018-02-10T14:08:58.092Z,13.60
2018-02-10T14:11:26.776Z,14.93
2018-02-10T14:13:58.191Z,15.20
2018-02-10T14:16:26.512Z,10.83
2018-02-10T14:18:55.608Z,6.77
2018-02-10T14:21:25.325Z,8.50
2018-02-10T14:23:53.691Z,11.20
2018-02-10T14:26:22.088Z,9.73
2018-02-10T14:28:50.436Z,11.07
2018-02-10T14:31:18.842Z,8.63
2018-02-10T14:33:47.242Z,9.63
2018-02-10T14:36:23.673Z,12.23
2018-02-10T14:38:52.027Z,10.13
2018-02-10T14:41:20.315Z,7.53
2018-02-10T14:43:48.664Z,7.43
2018-02-10T14:46:16.982Z,9.27
2018-02-10T14:48:45.382Z,6.30
2018-02-10T14:51:13.769Z,7.37
2018-02-10T14:53:44.116Z,6.97
2018-02-10T14:56:12.523Z,9.77
2018-02-10T14:58:40.885Z,8.67
2018-02-10T15:01:09.223Z,9.60
2018-02-10T15:03:37.591Z,8.63
2018-02-10T15:06:05.908Z,8.80
2018-02-10T15:08:36.731Z,8.33
2018-02-10T15:11:05.898Z,11.50
2018-02-10T15:13:34.323Z,6.67
2018-02-10T15:16:03.144Z,7.50
2018-02-10T15:18:32.560Z,10.90
2018-02-10T15:21:00.879Z,5.90
2018-02-10T15:23:29.211Z,7.30
2018-02-10T15:25:57.611Z,5.90
2018-02-10T15:28:26.049Z,6.90
2018-02-10T15:31:12.155Z,11.70
2018-02-10T16:30:39.922Z,6.95
2018-02-10T16:33:08.210Z,10.33
2018-02-10T16:35:39.296Z,9.57
2018-02-10T16:38:08.465Z,10.00
2018-02-10T16:40:37.613Z,9.83
2018-02-10T16:43:06.223Z,11.90
2018-02-10T16:45:34.598Z,11.90
2018-02-10T16:48:08.456Z,16.73
2018-02-10T16:50:36.758Z,11.20
2018-02-10T16:53:05.060Z,10.50
2018-02-10T16:55:33.412Z,12.20
2018-02-10T16:58:14.519Z,10.60
2018-02-10T17:00:42.827Z,10.57
2018-02-10T17:03:13.936Z,5.90
2018-02-10T17:05:42.423Z,11.37
2018-02-10T17:08:11.100Z,12.27
2018-02-10T17:10:39.386Z,16.37
2018-02-10T17:13:14.089Z,11.10
2018-02-10T17:15:42.387Z,10.23
2018-02-10T17:18:10.818Z,13.70
2018-02-10T17:21:12.822Z,18.08
2018-02-10T17:23:43.968Z,9.77
2018-02-10T17:26:15.749Z,13.90
2018-02-10T17:28:44.104Z,15.93
2018-02-10T17:31:12.423Z,12.02
2018-02-10T17:33:40.780Z,11.73
2018-02-10T17:36:10.038Z,15.43
2018-02-10T17:38:38.852Z,12.95
2018-02-10T17:41:07.268Z,11.87
2018-02-10T17:43:35.614Z,13.20
2018-02-10T17:46:03.966Z,14.00
2018-02-10T17:48:32.265Z,17.87
2018-02-10T17:51:00.603Z,14.33
2018-02-10T17:53:44.146Z,13.85
2018-02-10T17:56:12.474Z,14.30
2018-02-10T17:58:40.787Z,13.57
2018-02-10T18:01:09.118Z,15.15
2018-02-10T18:03:37.587Z,17.20
2018-02-10T18:06:05.920Z,13.57
2018-02-10T18:08:34.302Z,18.92
2018-02-10T18:11:02.662Z,14.23
2018-02-10T18:13:30.943Z,17.40
2018-02-10T18:15:59.258Z,17.30
2018-02-10T18:18:27.557Z,14.60
2018-02-10T18:27:30.085Z,10.90
2018-02-10T18:30:04.111Z,16.10
2018-02-10T18:32:32.523Z,20.20
2018-02-10T18:35:01.831Z,14.73
2018-02-10T18:37:31.142Z,21.90
2018-02-10T18:39:59.478Z,18.30
2018-02-10T18:42:29.562Z,15.37
2018-02-10T18:44:58.226Z,17.42
2018-02-10T18:47:27.709Z,17.97
2018-02-10T18:49:56.119Z,16.30
2018-02-10T18:52:43.805Z,29.63
2018-02-10T18:55:12.123Z,20.77
2018-02-10T18:57:40.590Z,19.77
2018-02-10T19:00:08.906Z,15.47
2018-02-10T19:02:42.153Z,13.53
2018-02-10T19:05:15.868Z,14.07
2018-02-10T19:23:24.045Z,19.50
2018-02-10T19:26:04.404Z,15.93
2018-02-10T19:28:32.789Z,19.25
2018-02-10T19:31:01.201Z,41.40
2018-02-10T19:33:29.571Z,17.20
2018-02-10T19:35:57.924Z,24.08
2018-02-10T19:38:26.256Z,15.37
2018-02-10T19:40:54.682Z,18.35
2018-02-10T19:43:22.987Z,17.33
2018-02-10T19:45:51.298Z,17.07
2018-02-10T19:48:19.619Z,17.70
2018-02-10T19:50:50.928Z,19.37
2018-02-10T19:53:20.334Z,22.60
2018-02-10T19:55:48.818Z,15.10
2018-02-10T19:58:17.190Z,15.63
2018-02-10T20:00:45.645Z,13.18
2018-02-10T20:03:14.178Z,18.13
2018-02-10T20:05:42.522Z,21.60
2018-02-10T20:08:10.849Z,20.00
2018-02-10T20:10:39.553Z,23.00
2018-02-10T20:13:08.032Z,19.60
2018-02-10T20:15:36.417Z,23.08
2018-02-10T20:18:04.742Z,20.40
2018-02-10T20:20:33.202Z,20.60
2018-02-10T20:23:01.535Z,16.62
2018-02-10T20:25:29.905Z,16.57
2018-02-10T20:27:58.311Z,12.83
2018-02-10T20:30:26.736Z,16.42
2018-02-10T20:32:57.182Z,18.27
2018-02-10T20:35:25.552Z,23.12
2018-02-10T20:37:53.902Z,17.40
2018-02-10T20:40:36.373Z,17.42
2018-02-10T20:43:04.734Z,19.13
2018-02-10T20:45:35.240Z,22.50
2018-02-10T20:48:09.175Z,20.90
2018-02-10T20:50:44.443Z,18.37
2018-02-10T20:53:13.087Z,21.30
2018-02-10T20:55:41.563Z,17.83
2018-02-10T20:58:09.922Z,20.67
2018-02-10T21:00:38.254Z,17.92
2018-02-10T21:03:06.734Z,18.05
2018-02-10T21:05:35.036Z,16.90
2018-02-10T21:08:03.422Z,18.00
2018-02-10T21:10:31.780Z,22.00
2018-02-10T21:13:00.180Z,23.40
2018-02-10T21:15:28.502Z,15.73
2018-02-10T21:17:56.842Z,17.87
2018-02-10T21:20:25.138Z,16.80
2018-02-10T21:22:53.887Z,19.50
2018-02-10T21:25:22.207Z,17.02
2018-02-10T21:27:50.604Z,22.40
2018-02-10T21:30:18.952Z,16.30
2018-02-10T21:32:47.244Z,18.13
2018-02-10T21:35:15.629Z,15.93
2018-02-10T21:37:44.897Z,15.60
2018-02-10T21:40:13.253Z,20.33
2018-02-10T21:42:41.618Z,17.48
2018-02-10T21:45:09.938Z,22.97
2018-02-10T21:47:38.292Z,18.50
2018-02-10T21:50:06.632Z,16.90
2018-02-10T21:52:34.968Z,16.92
2018-02-10T21:55:03.300Z,19.98
2018-02-10T21:57:31.705Z,14.00
2018-02-10T22:00:00.105Z,14.90
2018-02-10T22:02:28.459Z,16.00
2018-02-10T22:04:56.881Z,24.67
2018-02-10T22:07:25.303Z,16.67
2018-02-10T22:09:53.655Z,14.93
2018-02-10T22:12:22.112Z,14.85
2018-02-10T22:14:51.387Z,15.73
2018-02-10T22:17:20.664Z,12.70
2018-02-10T22:19:48.969Z,12.75
2018-02-10T22:22:17.337Z,20.25
2018-02-10T22:24:45.736Z,17.15
2018-02-10T22:27:14.136Z,20.42
2018-02-10T22:29:42.559Z,12.48
2018-02-10T22:32:10.930Z,15.15
2018-02-10T22:34:40.182Z,16.43
2018-02-10T22:37:08.479Z,14.80
2018-02-10T22:39:36.924Z,12.40
2018-02-10T22:42:06.104Z,16.33
2018-02-10T22:44:34.420Z,14.50
2018-02-10T22:47:02.872Z,12.73
2018-02-10T22:49:32.279Z,18.20
2018-02-10T22:52:00.840Z,13.98
2018-02-10T22:54:30.156Z,15.10
2018-02-10T22:56:58.540Z,15.82
2018-02-10T22:59:26.866Z,15.65
2018-02-10T23:01:55.197Z,12.95
2018-02-10T23:04:23.614Z,17.30
2018-02-10T23:06:52.019Z,11.73
2018-02-10T23:09:20.303Z,16.55
2018-02-10T23:11:48.794Z,12.40
2018-02-10T23:14:17.265Z,13.75
2018-02-10T23:16:45.626Z,11.93
2018-02-10T23:19:14.031Z,13.85
2018-02-10T23:21:42.504Z,20.85
2018-02-10T23:24:10.813Z,15.52
2018-02-10T23:26:39.119Z,9.27
2018-02-10T23:29:07.563Z,16.00
2018-02-10T23:31:36.024Z,15.07
2018-02-10T23:34:04.362Z,9.20
2018-02-10T23:36:32.754Z,8.77
2018-02-10T23:39:01.160Z,10.43
2018-02-10T23:41:29.540Z,14.93
2018-02-10T23:43:58.896Z,18.90
2018-02-10T23:46:27.213Z,16.23
2018-02-10T23:48:55.530Z,11.63
2018-02-10T23:51:23.850Z,17.60
2018-02-10T23:53:52.183Z,13.50
2018-02-10T23:56:20.678Z,8.07
2018-02-10T23:58:49.099Z,13.52
